sensor_id;sensor_type;location;lat;lon;timestamp;P1;durP1;ratioP1;P2;durP2;ratioP2
20271;SDS011;10295;49.812;9.866;2023-06-10T00:00:44;15.73;;;8.60;;
20271;SDS011;10295;49.812;9.866;2023-06-10T00:03:11;18.13;;;9.33;;
20271;SDS011;10295;49.812;9.866;2023-06-10T00:05:39;14.83;;;9.17;;
20271;SDS011;10295;49.812;9.866;2023-06-10T00:08:07;14.83;;;8.53;;
20271;SDS011;10295;49.812;9.866;2023-06-10T00:10:35;15.00;;;9.07;;
20271;SDS011;10295;49.812;9.866;2023-06-10T00:13:03;14.17;;;8.77;;
20271;SDS011;10295;49.812;9.866;2023-06-10T00:15:30;17.67;;;9.30;;
20271;SDS011;10295;49.812;9.866;2023-06-10T00:17:57;16.17;;;9.50;;
20271;SDS011;10295;49.812;9.866;2023-06-10T00:20:25;16.13;;;9.50;;
20271;SDS011;10295;49.812;9.866;2023-06-10T00:22:52;16.07;;;8.90;;
20271;SDS011;10295;49.812;9.866;2023-06-10T00:25:19;14.23;;;8.50;;
20271;SDS011;10295;49.812;9.866;2023-06-10T00:27:47;17.47;;;9.23;;
20271;SDS011;10295;49.812;9.866;2023-06-10T00:30:14;15.30;;;9.00;;
20271;SDS011;10295;49.812;9.866;2023-06-10T00:32:41;16.43;;;9.60;;
20271;SDS011;10295;49.812;9.866;2023-06-10T00:35:09;15.63;;;8.93;;
20271;SDS011;10295;49.812;9.866;2023-06-10T00:37:37;14.73;;;9.30;;
20271;SDS011;10295;49.812;9.866;2023-06-10T00:40:05;18.40;;;9.47;;
20271;SDS011;10295;49.812;9.866;2023-06-10T00:42:32;15.63;;;9.73;;
20271;SDS011;10295;49.812;9.866;2023-06-10T00:44:59;15.17;;;9.30;;
20271;SDS011;10295;49.812;9.866;2023-06-10T00:47:27;14.90;;;9.20;;
20271;SDS011;10295;49.812;9.866;2023-06-10T00:49:54;13.73;;;9.00;;
20271;SDS011;10295;49.812;9.866;2023-06-10T00:52:22;13.77;;;9.27;;
20271;SDS011;10295;49.812;9.866;2023-06-10T00:54:54;16.43;;;9.23;;
20271;SDS011;10295;49.812;9.866;2023-06-10T00:57:21;19.03;;;10.13;;
20271;SDS011;10295;49.812;9.866;2023-06-10T00:59:49;13.83;;;9.77;;
20271;SDS011;10295;49.812;9.866;2023-06-10T01:02:16;16.50;;;9.50;;
20271;SDS011;10295;49.812;9.866;2023-06-10T01:04:43;14.57;;;9.80;;
20271;SDS011;10295;49.812;9.866;2023-06-10T01:07:21;19.23;;;9.90;;
20271;SDS011;10295;49.812;9.866;2023-06-10T01:10:25;17.37;;;9.67;;
20271;SDS011;10295;49.812;9.866;2023-06-10T01:12:45;14.50;;;9.63;;
20271;SDS011;10295;49.812;9.866;2023-06-10T01:15:16;17.67;;;9.63;;
20271;SDS011;10295;49.812;9.866;2023-06-10T01:17:56;15.37;;;9.73;;
20271;SDS011;10295;49.812;9.866;2023-06-10T01:20:26;16.97;;;9.77;;
20271;SDS011;10295;49.812;9.866;2023-06-10T01:22:56;15.13;;;9.67;;
20271;SDS011;10295;49.812;9.866;2023-06-10T01:25:24;16.87;;;9.97;;
20271;SDS011;10295;49.812;9.866;2023-06-10T01:28:02;14.23;;;9.40;;
20271;SDS011;10295;49.812;9.866;2023-06-10T01:30:30;16.30;;;10.63;;
20271;SDS011;10295;49.812;9.866;2023-06-10T01:32:59;15.17;;;9.80;;
20271;SDS011;10295;49.812;9.866;2023-06-10T01:35:27;17.00;;;10.63;;
20271;SDS011;10295;49.812;9.866;2023-06-10T01:37:57;17.13;;;9.97;;
20271;SDS011;10295;49.812;9.866;2023-06-10T01:40:25;15.63;;;9.27;;
20271;SDS011;10295;49.812;9.866;2023-06-10T01:42:52;18.60;;;10.83;;
20271;SDS011;10295;49.812;9.866;2023-06-10T01:45:19;17.30;;;10.33;;
20271;SDS011;10295;49.812;9.866;2023-06-10T01:47:47;16.00;;;10.33;;
20271;SDS011;10295;49.812;9.866;2023-06-10T01:50:14;18.30;;;10.67;;
20271;SDS011;10295;49.812;9.866;2023-06-10T01:52:42;15.53;;;10.43;;
20271;SDS011;10295;49.812;9.866;2023-06-10T01:55:09;17.77;;;11.00;;
20271;SDS011;10295;49.812;9.866;2023-06-10T01:57:37;17.07;;;10.07;;
20271;SDS011;10295;49.812;9.866;2023-06-10T02:00:04;16.27;;;11.53;;
20271;SDS011;10295;49.812;9.866;2023-06-10T02:02:31;17.53;;;10.90;;
20271;SDS011;10295;49.812;9.866;2023-06-10T02:04:59;17.63;;;11.90;;
20271;SDS011;10295;49.812;9.866;2023-06-10T02:07:26;18.33;;;11.30;;
20271;SDS011;10295;49.812;9.866;2023-06-10T02:09:53;18.07;;;11.20;;
20271;SDS011;10295;49.812;9.866;2023-06-10T02:12:20;18.77;;;11.67;;
20271;SDS011;10295;49.812;9.866;2023-06-10T02:14:48;18.57;;;11.30;;
20271;SDS011;10295;49.812;9.866;2023-06-10T02:17:15;16.93;;;11.27;;
20271;SDS011;10295;49.812;9.866;2023-06-10T02:19:42;16.83;;;11.37;;
20271;SDS011;10295;49.812;9.866;2023-06-10T02:22:09;16.80;;;10.97;;
20271;SDS011;10295;49.812;9.866;2023-06-10T02:24:36;18.40;;;11.83;;
20271;SDS011;10295;49.812;9.866;2023-06-10T02:27:04;17.10;;;11.53;;
20271;SDS011;10295;49.812;9.866;2023-06-10T02:29:35;18.33;;;12.00;;
20271;SDS011;10295;49.812;9.866;2023-06-10T02:32:02;20.83;;;12.90;;
20271;SDS011;10295;49.812;9.866;2023-06-10T02:34:30;17.37;;;12.20;;
20271;SDS011;10295;49.812;9.866;2023-06-10T02:36:57;20.63;;;11.97;;
20271;SDS011;10295;49.812;9.866;2023-06-10T02:39:24;20.63;;;11.43;;
20271;SDS011;10295;49.812;9.866;2023-06-10T02:41:51;20.97;;;12.37;;
20271;SDS011;10295;49.812;9.866;2023-06-10T02:44:19;17.93;;;12.13;;
20271;SDS011;10295;49.812;9.866;2023-06-10T02:46:46;18.13;;;12.03;;
20271;SDS011;10295;49.812;9.866;2023-06-10T02:49:13;17.50;;;12.23;;
20271;SDS011;10295;49.812;9.866;2023-06-10T02:51:41;18.73;;;12.53;;
20271;SDS011;10295;49.812;9.866;2023-06-10T02:54:08;17.97;;;12.00;;
20271;SDS011;10295;49.812;9.866;2023-06-10T02:56:35;19.57;;;12.70;;
20271;SDS011;10295;49.812;9.866;2023-06-10T02:59:07;20.40;;;12.73;;
20271;SDS011;10295;49.812;9.866;2023-06-10T03:01:34;19.17;;;12.70;;
20271;SDS011;10295;49.812;9.866;2023-06-10T03:04:04;20.17;;;13.10;;
20271;SDS011;10295;49.812;9.866;2023-06-10T03:06:31;17.27;;;12.27;;
20271;SDS011;10295;49.812;9.866;2023-06-10T03:09:02;17.40;;;12.77;;
20271;SDS011;10295;49.812;9.866;2023-06-10T03:11:30;20.40;;;12.83;;
20271;SDS011;10295;49.812;9.866;2023-06-10T03:13:57;21.30;;;12.93;;
20271;SDS011;10295;49.812;9.866;2023-06-10T03:16:24;18.20;;;12.67;;
20271;SDS011;10295;49.812;9.866;2023-06-10T03:18:53;19.23;;;13.07;;
20271;SDS011;10295;49.812;9.866;2023-06-10T03:21:21;19.20;;;13.43;;
20271;SDS011;10295;49.812;9.866;2023-06-10T03:23:48;17.43;;;12.37;;
20271;SDS011;10295;49.812;9.866;2023-06-10T03:26:15;18.80;;;13.03;;
20271;SDS011;10295;49.812;9.866;2023-06-10T03:28:42;17.93;;;12.63;;
20271;SDS011;10295;49.812;9.866;2023-06-10T03:31:10;18.37;;;13.20;;
20271;SDS011;10295;49.812;9.866;2023-06-10T03:33:37;17.73;;;12.40;;
20271;SDS011;10295;49.812;9.866;2023-06-10T03:36:05;19.27;;;12.90;;
20271;SDS011;10295;49.812;9.866;2023-06-10T03:38:32;20.37;;;13.57;;
20271;SDS011;10295;49.812;9.866;2023-06-10T03:40:59;18.97;;;12.07;;
20271;SDS011;10295;49.812;9.866;2023-06-10T03:43:26;18.60;;;12.90;;
20271;SDS011;10295;49.812;9.866;2023-06-10T03:45:53;20.83;;;12.90;;
20271;SDS011;10295;49.812;9.866;2023-06-10T03:48:21;17.67;;;12.63;;
20271;SDS011;10295;49.812;9.866;2023-06-10T03:50:48;23.13;;;13.30;;
20271;SDS011;10295;49.812;9.866;2023-06-10T03:53:17;19.23;;;13.33;;
20271;SDS011;10295;49.812;9.866;2023-06-10T03:55:44;20.67;;;13.90;;
20271;SDS011;10295;49.812;9.866;2023-06-10T03:58:11;19.83;;;14.43;;
20271;SDS011;10295;49.812;9.866;2023-06-10T04:00:44;19.97;;;13.90;;
20271;SDS011;10295;49.812;9.866;2023-06-10T04:03:11;20.43;;;14.77;;
20271;SDS011;10295;49.812;9.866;2023-06-10T04:05:41;19.70;;;14.57;;
20271;SDS011;10295;49.812;9.866;2023-06-10T04:08:08;21.10;;;12.80;;
20271;SDS011;10295;49.812;9.866;2023-06-10T04:10:36;24.60;;;13.40;;
20271;SDS011;10295;49.812;9.866;2023-06-10T04:13:03;19.13;;;13.27;;
20271;SDS011;10295;49.812;9.866;2023-06-10T04:15:30;23.57;;;12.50;;
20271;SDS011;10295;49.812;9.866;2023-06-10T04:18:00;22.87;;;11.80;;
20271;SDS011;10295;49.812;9.866;2023-06-10T04:20:27;16.10;;;11.07;;
20271;SDS011;10295;49.812;9.866;2023-06-10T04:22:55;17.17;;;11.27;;
20271;SDS011;10295;49.812;9.866;2023-06-10T04:25:22;16.43;;;10.93;;
20271;SDS011;10295;49.812;9.866;2023-06-10T04:27:50;18.53;;;10.97;;
20271;SDS011;10295;49.812;9.866;2023-06-10T04:30:17;17.67;;;10.33;;
20271;SDS011;10295;49.812;9.866;2023-06-10T04:32:44;15.83;;;9.63;;
20271;SDS011;10295;49.812;9.866;2023-06-10T04:35:13;16.40;;;9.80;;
20271;SDS011;10295;49.812;9.866;2023-06-10T04:37:40;16.07;;;9.53;;
20271;SDS011;10295;49.812;9.866;2023-06-10T04:40:08;15.13;;;9.47;;
20271;SDS011;10295;49.812;9.866;2023-06-10T04:42:36;17.33;;;8.70;;
20271;SDS011;10295;49.812;9.866;2023-06-10T04:45:03;18.67;;;9.00;;
20271;SDS011;10295;49.812;9.866;2023-06-10T04:47:31;15.80;;;9.15;;
20271;SDS011;10295;49.812;9.866;2023-06-10T04:50:00;11.77;;;7.97;;
20271;SDS011;10295;49.812;9.866;2023-06-10T04:52:27;14.38;;;8.25;;
20271;SDS011;10295;49.812;9.866;2023-06-10T04:54:54;18.23;;;8.93;;
20271;SDS011;10295;49.812;9.866;2023-06-10T04:57:21;13.70;;;7.88;;
20271;SDS011;10295;49.812;9.866;2023-06-10T04:59:48;13.93;;;8.10;;
20271;SDS011;10295;49.812;9.866;2023-06-10T05:02:16;14.60;;;7.82;;
20271;SDS011;10295;49.812;9.866;2023-06-10T05:04:43;13.40;;;8.00;;
20271;SDS011;10295;49.812;9.866;2023-06-10T05:07:10;15.75;;;8.18;;
20271;SDS011;10295;49.812;9.866;2023-06-10T05:09:38;13.50;;;7.65;;
20271;SDS011;10295;49.812;9.866;2023-06-10T05:12:05;13.50;;;7.63;;
20271;SDS011;10295;49.812;9.866;2023-06-10T05:14:33;17.35;;;7.78;;
20271;SDS011;10295;49.812;9.866;2023-06-10T05:17:00;11.55;;;7.00;;
20271;SDS011;10295;49.812;9.866;2023-06-10T05:19:27;13.25;;;7.20;;
20271;SDS011;10295;49.812;9.866;2023-06-10T05:21:54;15.30;;;7.38;;
20271;SDS011;10295;49.812;9.866;2023-06-10T05:24:22;12.73;;;6.90;;
20271;SDS011;10295;49.812;9.866;2023-06-10T05:26:49;12.55;;;6.93;;
20271;SDS011;10295;49.812;9.866;2023-06-10T05:29:16;14.00;;;6.80;;
20271;SDS011;10295;49.812;9.866;2023-06-10T05:31:44;13.00;;;7.40;;
20271;SDS011;10295;49.812;9.866;2023-06-10T05:34:11;11.43;;;6.80;;
20271;SDS011;10295;49.812;9.866;2023-06-10T05:36:38;11.68;;;7.03;;
20271;SDS011;10295;49.812;9.866;2023-06-10T05:39:05;13.27;;;7.03;;
20271;SDS011;10295;49.812;9.866;2023-06-10T05:41:32;11.48;;;6.70;;
20271;SDS011;10295;49.812;9.866;2023-06-10T05:44:00;15.27;;;7.07;;
20271;SDS011;10295;49.812;9.866;2023-06-10T05:46:27;12.43;;;6.93;;
20271;SDS011;10295;49.812;9.866;2023-06-10T05:48:54;11.38;;;7.00;;
20271;SDS011;10295;49.812;9.866;2023-06-10T05:51:21;14.85;;;6.82;;
20271;SDS011;10295;49.812;9.866;2023-06-10T05:53:48;12.15;;;6.95;;
20271;SDS011;10295;49.812;9.866;2023-06-10T05:56:16;12.57;;;6.70;;
20271;SDS011;10295;49.812;9.866;2023-06-10T05:58:43;10.90;;;6.80;;
20271;SDS011;10295;49.812;9.866;2023-06-10T06:01:10;9.77;;;6.22;;
20271;SDS011;10295;49.812;9.866;2023-06-10T06:03:37;13.45;;;6.35;;
20271;SDS011;10295;49.812;9.866;2023-06-10T06:06:05;10.20;;;6.18;;
20271;SDS011;10295;49.812;9.866;2023-06-10T06:08:32;11.25;;;6.25;;
20271;SDS011;10295;49.812;9.866;2023-06-10T06:10:59;13.50;;;6.13;;
20271;SDS011;10295;49.812;9.866;2023-06-10T06:13:27;11.20;;;6.18;;
20271;SDS011;10295;49.812;9.866;2023-06-10T06:15:54;9.82;;;5.82;;
20271;SDS011;10295;49.812;9.866;2023-06-10T06:18:21;11.18;;;6.00;;
20271;SDS011;10295;49.812;9.866;2023-06-10T06:20:49;12.13;;;5.82;;
20271;SDS011;10295;49.812;9.866;2023-06-10T06:23:16;11.63;;;5.97;;
20271;SDS011;10295;49.812;9.866;2023-06-10T06:25:43;11.13;;;5.43;;
20271;SDS011;10295;49.812;9.866;2023-06-10T06:28:11;11.05;;;5.60;;
20271;SDS011;10295;49.812;9.866;2023-06-10T06:30:38;9.52;;;5.60;;
20271;SDS011;10295;49.812;9.866;2023-06-10T06:33:05;9.02;;;5.60;;
20271;SDS011;10295;49.812;9.866;2023-06-10T06:35:33;9.10;;;5.50;;
20271;SDS011;10295;49.812;9.866;2023-06-10T06:38:00;9.70;;;5.68;;
20271;SDS011;10295;49.812;9.866;2023-06-10T06:40:27;11.10;;;5.57;;
20271;SDS011;10295;49.812;9.866;2023-06-10T06:42:55;10.93;;;5.53;;
20271;SDS011;10295;49.812;9.866;2023-06-10T06:45:22;12.85;;;5.65;;
20271;SDS011;10295;49.812;9.866;2023-06-10T06:47:49;13.23;;;5.50;;
20271;SDS011;10295;49.812;9.866;2023-06-10T06:50:17;9.25;;;5.43;;
20271;SDS011;10295;49.812;9.866;2023-06-10T06:52:44;10.65;;;5.68;;
20271;SDS011;10295;49.812;9.866;2023-06-10T06:55:12;10.35;;;5.75;;
20271;SDS011;10295;49.812;9.866;2023-06-10T06:57:39;12.48;;;5.43;;
20271;SDS011;10295;49.812;9.866;2023-06-10T07:00:06;12.32;;;6.28;;
20271;SDS011;10295;49.812;9.866;2023-06-10T07:02:35;10.57;;;5.22;;
20271;SDS011;10295;49.812;9.866;2023-06-10T07:05:02;9.73;;;6.05;;
20271;SDS011;10295;49.812;9.866;2023-06-10T07:07:30;18.27;;;6.18;;
20271;SDS011;10295;49.812;9.866;2023-06-10T07:09:57;9.48;;;5.65;;
20271;SDS011;10295;49.812;9.866;2023-06-10T07:12:24;11.35;;;5.93;;
20271;SDS011;10295;49.812;9.866;2023-06-10T07:14:51;9.10;;;5.72;;
20271;SDS011;10295;49.812;9.866;2023-06-10T07:17:18;14.75;;;6.18;;
20271;SDS011;10295;49.812;9.866;2023-06-10T07:19:46;12.27;;;6.18;;
20271;SDS011;10295;49.812;9.866;2023-06-10T07:22:13;10.27;;;5.93;;
20271;SDS011;10295;49.812;9.866;2023-06-10T07:24:41;10.90;;;5.90;;
20271;SDS011;10295;49.812;9.866;2023-06-10T07:27:08;11.98;;;6.30;;
20271;SDS011;10295;49.812;9.866;2023-06-10T07:29:36;10.90;;;5.93;;
20271;SDS011;10295;49.812;9.866;2023-06-10T07:32:03;12.18;;;6.25;;
20271;SDS011;10295;49.812;9.866;2023-06-10T07:34:31;11.13;;;6.00;;
20271;SDS011;10295;49.812;9.866;2023-06-10T07:36:58;10.70;;;5.63;;
20271;SDS011;10295;49.812;9.866;2023-06-10T07:39:26;12.18;;;5.70;;
20271;SDS011;10295;49.812;9.866;2023-06-10T07:41:53;10.77;;;5.70;;
20271;SDS011;10295;49.812;9.866;2023-06-10T07:46:51;10.48;;;5.28;;
20271;SDS011;10295;49.812;9.866;2023-06-10T07:49:19;11.80;;;5.65;;
20271;SDS011;10295;49.812;9.866;2023-06-10T07:51:46;11.80;;;5.65;;
20271;SDS011;10295;49.812;9.866;2023-06-10T07:54:13;10.70;;;5.38;;
20271;SDS011;10295;49.812;9.866;2023-06-10T07:56:43;14.55;;;5.90;;
20271;SDS011;10295;49.812;9.866;2023-06-10T07:59:10;10.20;;;6.05;;
20271;SDS011;10295;49.812;9.866;2023-06-10T08:01:37;13.02;;;6.25;;
20271;SDS011;10295;49.812;9.866;2023-06-10T08:04:06;15.60;;;5.85;;
20271;SDS011;10295;49.812;9.866;2023-06-10T08:06:34;11.68;;;6.45;;
20271;SDS011;10295;49.812;9.866;2023-06-10T08:09:03;9.20;;;5.50;;
20271;SDS011;10295;49.812;9.866;2023-06-10T08:11:30;10.32;;;5.40;;
20271;SDS011;10295;49.812;9.866;2023-06-10T08:13:57;11.70;;;5.85;;
20271;SDS011;10295;49.812;9.866;2023-06-10T08:16:25;9.98;;;5.30;;
20271;SDS011;10295;49.812;9.866;2023-06-10T08:18:52;9.52;;;5.80;;
20271;SDS011;10295;49.812;9.866;2023-06-10T08:21:21;12.95;;;5.78;;
20271;SDS011;10295;49.812;9.866;2023-06-10T08:23:49;11.20;;;5.80;;
20271;SDS011;10295;49.812;9.866;2023-06-10T08:26:19;10.77;;;5.45;;
20271;SDS011;10295;49.812;9.866;2023-06-10T08:28:46;12.50;;;5.85;;
20271;SDS011;10295;49.812;9.866;2023-06-10T08:31:13;11.95;;;5.45;;
20271;SDS011;10295;49.812;9.866;2023-06-10T08:33:41;10.95;;;5.38;;
20271;SDS011;10295;49.812;9.866;2023-06-10T08:36:08;11.13;;;5.22;;
20271;SDS011;10295;49.812;9.866;2023-06-10T08:38:35;12.02;;;5.30;;
20271;SDS011;10295;49.812;9.866;2023-06-10T08:41:03;9.40;;;5.13;;
20271;SDS011;10295;49.812;9.866;2023-06-10T08:46:08;12.63;;;5.07;;
20271;SDS011;10295;49.812;9.866;2023-06-10T08:48:38;8.88;;;4.90;;
20271;SDS011;10295;49.812;9.866;2023-06-10T08:51:06;11.77;;;4.95;;
20271;SDS011;10295;49.812;9.866;2023-06-10T08:53:33;9.18;;;4.60;;
20271;SDS011;10295;49.812;9.866;2023-06-10T08:56:03;8.32;;;4.53;;
20271;SDS011;10295;49.812;9.866;2023-06-10T08:58:32;8.75;;;4.35;;
20271;SDS011;10295;49.812;9.866;2023-06-10T09:01:08;8.80;;;4.30;;
20271;SDS011;10295;49.812;9.866;2023-06-10T09:03:37;10.10;;;4.45;;
20271;SDS011;10295;49.812;9.866;2023-06-10T09:06:04;13.50;;;4.60;;
20271;SDS011;10295;49.812;9.866;2023-06-10T09:08:35;9.30;;;4.57;;
20271;SDS011;10295;49.812;9.866;2023-06-10T09:11:03;14.23;;;4.18;;
20271;SDS011;10295;49.812;9.866;2023-06-10T09:13:30;8.68;;;4.10;;
20271;SDS011;10295;49.812;9.866;2023-06-10T09:15:57;10.63;;;4.28;;
20271;SDS011;10295;49.812;9.866;2023-06-10T09:18:27;7.95;;;4.10;;
20271;SDS011;10295;49.812;9.866;2023-06-10T09:20:55;9.90;;;4.30;;
20271;SDS011;10295;49.812;9.866;2023-06-10T09:23:22;9.07;;;4.03;;
20271;SDS011;10295;49.812;9.866;2023-06-10T09:25:55;9.02;;;4.00;;
20271;SDS011;10295;49.812;9.866;2023-06-10T09:28:24;7.82;;;3.85;;
20271;SDS011;10295;49.812;9.866;2023-06-10T09:31:01;8.18;;;4.30;;
20271;SDS011;10295;49.812;9.866;2023-06-10T09:33:29;11.07;;;3.95;;
20271;SDS011;10295;49.812;9.866;2023-06-10T09:35:56;10.43;;;4.30;;
20271;SDS011;10295;49.812;9.866;2023-06-10T09:38:31;9.30;;;4.35;;
20271;SDS011;10295;49.812;9.866;2023-06-10T09:40:58;9.07;;;3.80;;
20271;SDS011;10295;49.812;9.866;2023-06-10T09:43:43;42.25;;;5.35;;
20271;SDS011;10295;49.812;9.866;2023-06-10T09:46:17;9.63;;;4.20;;
20271;SDS011;10295;49.812;9.866;2023-06-10T09:48:45;10.95;;;4.10;;
20271;SDS011;10295;49.812;9.866;2023-06-10T09:51:13;8.18;;;3.63;;
20271;SDS011;10295;49.812;9.866;2023-06-10T09:53:41;8.57;;;3.70;;
20271;SDS011;10295;49.812;9.866;2023-06-10T09:56:08;12.82;;;4.00;;
20271;SDS011;10295;49.812;9.866;2023-06-10T09:58:37;6.70;;;3.60;;
20271;SDS011;10295;49.812;9.866;2023-06-10T10:01:10;9.52;;;3.65;;
20271;SDS011;10295;49.812;9.866;2023-06-10T10:03:44;10.15;;;3.70;;
20271;SDS011;10295;49.812;9.866;2023-06-10T10:06:16;8.60;;;3.53;;
20271;SDS011;10295;49.812;9.866;2023-06-10T10:08:47;6.93;;;3.20;;
20271;SDS011;10295;49.812;9.866;2023-06-10T10:11:18;11.10;;;3.85;;
20271;SDS011;10295;49.812;9.866;2023-06-10T10:13:48;9.32;;;3.88;;
20271;SDS011;10295;49.812;9.866;2023-06-10T10:16:19;9.93;;;3.80;;
20271;SDS011;10295;49.812;9.866;2023-06-10T10:18:59;9.23;;;3.63;;
20271;SDS011;10295;49.812;9.866;2023-06-10T10:21:29;10.02;;;3.90;;
20271;SDS011;10295;49.812;9.866;2023-06-10T10:24:01;7.97;;;3.55;;
20271;SDS011;10295;49.812;9.866;2023-06-10T10:26:30;8.23;;;3.65;;
20271;SDS011;10295;49.812;9.866;2023-06-10T10:29:02;10.73;;;3.88;;
20271;SDS011;10295;49.812;9.866;2023-06-10T10:31:32;17.45;;;4.47;;
20271;SDS011;10295;49.812;9.866;2023-06-10T10:34:01;8.93;;;3.30;;
20271;SDS011;10295;49.812;9.866;2023-06-10T10:36:29;13.60;;;3.85;;
20271;SDS011;10295;49.812;9.866;2023-06-10T10:38:57;6.88;;;3.42;;
20271;SDS011;10295;49.812;9.866;2023-06-10T10:41:24;7.57;;;3.55;;
20271;SDS011;10295;49.812;9.866;2023-06-10T10:43:53;6.63;;;3.28;;
20271;SDS011;10295;49.812;9.866;2023-06-10T10:46:21;9.02;;;3.40;;
20271;SDS011;10295;49.812;9.866;2023-06-10T10:48:52;36.55;;;5.22;;
20271;SDS011;10295;49.812;9.866;2023-06-10T10:51:20;7.38;;;3.60;;
20271;SDS011;10295;49.812;9.866;2023-06-10T10:56:35;16.67;;;3.72;;
20271;SDS011;10295;49.812;9.866;2023-06-10T10:59:03;7.00;;;3.55;;
20271;SDS011;10295;49.812;9.866;2023-06-10T11:01:40;8.90;;;3.40;;
20271;SDS011;10295;49.812;9.866;2023-06-10T11:04:08;7.20;;;3.40;;
20271;SDS011;10295;49.812;9.866;2023-06-10T11:06:36;6.20;;;3.08;;
20271;SDS011;10295;49.812;9.866;2023-06-10T11:12:06;7.75;;;3.40;;
20271;SDS011;10295;49.812;9.866;2023-06-10T11:14:33;7.80;;;3.30;;
20271;SDS011;10295;49.812;9.866;2023-06-10T11:17:01;12.57;;;3.97;;
20271;SDS011;10295;49.812;9.866;2023-06-10T11:19:45;8.23;;;3.50;;
20271;SDS011;10295;49.812;9.866;2023-06-10T11:22:16;11.13;;;3.55;;
20271;SDS011;10295;49.812;9.866;2023-06-10T11:24:51;8.15;;;3.30;;
20271;SDS011;10295;49.812;9.866;2023-06-10T11:27:19;8.57;;;3.75;;
20271;SDS011;10295;49.812;9.866;2023-06-10T11:32:34;8.10;;;3.35;;
20271;SDS011;10295;49.812;9.866;2023-06-10T11:35:04;7.90;;;3.70;;
20271;SDS011;10295;49.812;9.866;2023-06-10T11:37:32;6.50;;;3.35;;
20271;SDS011;10295;49.812;9.866;2023-06-10T11:39:59;6.93;;;3.65;;
20271;SDS011;10295;49.812;9.866;2023-06-10T11:42:27;7.53;;;3.67;;
20271;SDS011;10295;49.812;9.866;2023-06-10T11:44:54;11.18;;;3.45;;
20271;SDS011;10295;49.812;9.866;2023-06-10T11:47:21;8.02;;;3.75;;
20271;SDS011;10295;49.812;9.866;2023-06-10T11:49:55;8.52;;;3.55;;
20271;SDS011;10295;49.812;9.866;2023-06-10T11:52:26;6.90;;;3.30;;
20271;SDS011;10295;49.812;9.866;2023-06-10T11:54:56;9.95;;;3.75;;
20271;SDS011;10295;49.812;9.866;2023-06-10T11:57:23;6.60;;;3.30;;
20271;SDS011;10295;49.812;9.866;2023-06-10T11:59:51;7.43;;;3.47;;
20271;SDS011;10295;49.812;9.866;2023-06-10T12:02:18;8.23;;;3.65;;
20271;SDS011;10295;49.812;9.866;2023-06-10T12:04:45;6.32;;;3.08;;
20271;SDS011;10295;49.812;9.866;2023-06-10T12:07:17;7.32;;;3.38;;
20271;SDS011;10295;49.812;9.866;2023-06-10T12:09:45;9.27;;;3.78;;
20271;SDS011;10295;49.812;9.866;2023-06-10T12:12:13;9.35;;;3.78;;
20271;SDS011;10295;49.812;9.866;2023-06-10T12:14:56;8.05;;;3.50;;
20271;SDS011;10295;49.812;9.866;2023-06-10T12:20:05;6.57;;;3.22;;
20271;SDS011;10295;49.812;9.866;2023-06-10T12:22:39;9.20;;;3.55;;
20271;SDS011;10295;49.812;9.866;2023-06-10T12:25:07;8.18;;;3.40;;
20271;SDS011;10295;49.812;9.866;2023-06-10T12:27:36;6.95;;;3.55;;
20271;SDS011;10295;49.812;9.866;2023-06-10T12:30:04;6.95;;;3.20;;
20271;SDS011;10295;49.812;9.866;2023-06-10T12:32:45;10.20;;;3.63;;
20271;SDS011;10295;49.812;9.866;2023-06-10T12:35:15;11.38;;;3.63;;
20271;SDS011;10295;49.812;9.866;2023-06-10T12:38:03;8.15;;;3.40;;
20271;SDS011;10295;49.812;9.866;2023-06-10T12:40:34;7.10;;;3.33;;
20271;SDS011;10295;49.812;9.866;2023-06-10T12:43:02;8.27;;;3.67;;
20271;SDS011;10295;49.812;9.866;2023-06-10T12:45:30;8.95;;;3.67;;
20271;SDS011;10295;49.812;9.866;2023-06-10T12:48:08;9.55;;;3.78;;
20271;SDS011;10295;49.812;9.866;2023-06-10T12:50:37;7.88;;;3.40;;
20271;SDS011;10295;49.812;9.866;2023-06-10T12:53:05;7.30;;;3.30;;
20271;SDS011;10295;49.812;9.866;2023-06-10T12:55:33;6.22;;;3.13;;
20271;SDS011;10295;49.812;9.866;2023-06-10T12:58:00;6.93;;;3.30;;
20271;SDS011;10295;49.812;9.866;2023-06-10T13:00:28;10.27;;;3.42;;
20271;SDS011;10295;49.812;9.866;2023-06-10T13:02:56;7.80;;;3.70;;
20271;SDS011;10295;49.812;9.866;2023-06-10T13:05:24;8.25;;;3.50;;
20271;SDS011;10295;49.812;9.866;2023-06-10T13:07:51;6.43;;;3.28;;
20271;SDS011;10295;49.812;9.866;2023-06-10T13:10:19;8.98;;;3.22;;
20271;SDS011;10295;49.812;9.866;2023-06-10T13:12:50;9.75;;;3.40;;
20271;SDS011;10295;49.812;9.866;2023-06-10T13:15:18;7.75;;;3.67;;
20271;SDS011;10295;49.812;9.866;2023-06-10T13:17:45;6.60;;;3.40;;
20271;SDS011;10295;49.812;9.866;2023-06-10T13:20:17;8.95;;;3.78;;
20271;SDS011;10295;49.812;9.866;2023-06-10T13:22:44;7.97;;;3.20;;
20271;SDS011;10295;49.812;9.866;2023-06-10T13:25:12;7.28;;;3.60;;
20271;SDS011;10295;49.812;9.866;2023-06-10T13:27:40;7.78;;;3.45;;
20271;SDS011;10295;49.812;9.866;2023-06-10T13:30:09;9.73;;;3.53;;
20271;SDS011;10295;49.812;9.866;2023-06-10T13:32:37;15.52;;;3.83;;
20271;SDS011;10295;49.812;9.866;2023-06-10T13:35:05;7.50;;;3.53;;
20271;SDS011;10295;49.812;9.866;2023-06-10T13:37:34;7.38;;;3.42;;
20271;SDS011;10295;49.812;9.866;2023-06-10T13:40:01;7.32;;;3.60;;
20271;SDS011;10295;49.812;9.866;2023-06-10T13:42:29;7.35;;;3.22;;
20271;SDS011;10295;49.812;9.866;2023-06-10T13:44:56;8.52;;;3.63;;
20271;SDS011;10295;49.812;9.866;2023-06-10T13:47:23;8.60;;;3.80;;
20271;SDS011;10295;49.812;9.866;2023-06-10T13:49:51;8.02;;;3.35;;
20271;SDS011;10295;49.812;9.866;2023-06-10T13:52:19;7.20;;;3.83;;
20271;SDS011;10295;49.812;9.866;2023-06-10T13:54:46;7.65;;;3.40;;
20271;SDS011;10295;49.812;9.866;2023-06-10T13:57:13;7.25;;;3.60;;
20271;SDS011;10295;49.812;9.866;2023-06-10T13:59:40;6.68;;;3.53;;
20271;SDS011;10295;49.812;9.866;2023-06-10T14:02:08;7.28;;;3.50;;
20271;SDS011;10295;49.812;9.866;2023-06-10T14:04:35;6.63;;;3.42;;
20271;SDS011;10295;49.812;9.866;2023-06-10T14:07:03;7.68;;;3.67;;
20271;SDS011;10295;49.812;9.866;2023-06-10T14:09:30;8.40;;;3.33;;
20271;SDS011;10295;49.812;9.866;2023-06-10T14:11:57;9.27;;;3.42;;
20271;SDS011;10295;49.812;9.866;2023-06-10T14:14:24;8.38;;;3.75;;
20271;SDS011;10295;49.812;9.866;2023-06-10T14:16:52;8.95;;;3.70;;
20271;SDS011;10295;49.812;9.866;2023-06-10T14:19:19;8.63;;;3.47;;
20271;SDS011;10295;49.812;9.866;2023-06-10T14:21:46;8.90;;;3.35;;
20271;SDS011;10295;49.812;9.866;2023-06-10T14:24:15;6.80;;;3.40;;
20271;SDS011;10295;49.812;9.866;2023-06-10T14:26:43;6.90;;;3.40;;
20271;SDS011;10295;49.812;9.866;2023-06-10T14:29:10;8.27;;;4.03;;
20271;SDS011;10295;49.812;9.866;2023-06-10T14:31:40;8.70;;;3.35;;
20271;SDS011;10295;49.812;9.866;2023-06-10T14:34:08;8.73;;;3.40;;
20271;SDS011;10295;49.812;9.866;2023-06-10T14:36:35;8.52;;;3.67;;
20271;SDS011;10295;49.812;9.866;2023-06-10T14:39:03;8.02;;;3.40;;
20271;SDS011;10295;49.812;9.866;2023-06-10T14:41:31;9.63;;;3.38;;
20271;SDS011;10295;49.812;9.866;2023-06-10T14:43:58;6.75;;;3.50;;
20271;SDS011;10295;49.812;9.866;2023-06-10T14:46:25;8.93;;;3.30;;
20271;SDS011;10295;49.812;9.866;2023-06-10T14:48:52;7.25;;;3.33;;
20271;SDS011;10295;49.812;9.866;2023-06-10T14:51:20;6.72;;;3.33;;
20271;SDS011;10295;49.812;9.866;2023-06-10T14:53:47;6.85;;;3.22;;
20271;SDS011;10295;49.812;9.866;2023-06-10T14:56:14;26.67;;;3.70;;
20271;SDS011;10295;49.812;9.866;2023-06-10T14:58:41;6.10;;;2.97;;